createdAt,value
2023-05-08T00:01:30.807Z,100984.91
2023-05-08T00:03:59.962Z,100992.47
2023-05-08T00:06:30.384Z,100990.13
2023-05-08T00:08:59.347Z,100989.41
2023-05-08T00:11:28.482Z,100988.94
2023-05-08T00:13:57.639Z,100992.16
2023-05-08T00:16:26.677Z,100994.72
2023-05-08T00:18:55.804Z,100996.81
2023-05-08T00:21:24.893Z,100999.81
2023-05-08T00:23:55.184Z,100996.97
2023-05-08T00:26:24.191Z,101002.38
2023-05-08T00:28:53.221Z,101010.31
2023-05-08T00:31:22.202Z,101003.78
2023-05-08T00:33:51.217Z,101004.50
2023-05-08T00:36:20.637Z,101009.91
2023-05-08T00:38:49.562Z,101012.03
2023-05-08T00:41:20.583Z,101011.59
2023-05-08T00:43:49.863Z,101011.13
2023-05-08T00:46:19.036Z,101010.28
2023-05-08T00:48:48.624Z,101014.81
2023-05-08T00:51:17.814Z,101018.56
2023-05-08T00:53:46.965Z,101018.41
2023-05-08T00:56:18.313Z,101022.41
2023-05-08T00:58:49.362Z,101020.84
2023-05-08T01:01:18.691Z,101026.25
2023-05-08T01:03:48.389Z,101021.78
2023-05-08T01:06:17.556Z,101022.97
2023-05-08T01:08:46.857Z,101021.78
2023-05-08T01:11:23.570Z,101015.25
2023-05-08T01:14:03.581Z,101027.63
2023-05-08T01:16:40.310Z,101022.25
2023-05-08T01:19:33.998Z,101024.28
2023-05-08T01:22:11.754Z,101024.50
2023-05-08T01:25:09.980Z,101024.50
2023-05-08T01:28:14.380Z,101033.22
2023-05-08T01:31:06.799Z,101039.06
2023-05-08T01:33:44.268Z,101041.84
2023-05-08T01:36:24.821Z,101038.16
2023-05-08T01:39:02.886Z,101039.16
2023-05-08T01:41:33.688Z,101034.94
2023-05-08T01:44:12.012Z,101040.53
2023-05-08T01:46:41.178Z,101039.75
2023-05-08T01:49:14.391Z,101036.34
2023-05-08T01:51:46.591Z,101032.16
2023-05-08T01:54:18.860Z,101040.06
2023-05-08T01:56:50.156Z,101032.56
2023-05-08T01:59:23.335Z,101035.22
2023-05-08T02:01:57.063Z,101025.59
2023-05-08T02:04:28.918Z,101030.84
2023-05-08T02:07:00.060Z,101034.72
2023-05-08T02:09:31.001Z,101033.50
2023-05-08T02:12:03.083Z,101034.56
2023-05-08T02:14:33.497Z,101038.78
2023-05-08T02:17:05.454Z,101036.13
2023-05-08T02:19:37.688Z,101036.22
2023-05-08T02:22:08.443Z,101041.63
2023-05-08T02:24:39.649Z,101038.09
2023-05-08T02:27:11.203Z,101048.06
2023-05-08T02:29:40.721Z,101046.84
2023-05-08T02:32:10.954Z,101042.78
2023-05-08T02:34:51.192Z,101045.66
2023-05-08T02:37:30.033Z,101047.34
2023-05-08T02:40:00.516Z,101044.19
2023-05-08T02:42:31.702Z,101049.94
2023-05-08T02:45:01.045Z,101057.66
2023-05-08T02:47:40.651Z,101057.34
2023-05-08T02:50:18.375Z,101055.28
2023-05-08T02:52:50.815Z,101069.31
2023-05-08T02:55:34.432Z,101071.03
2023-05-08T02:58:13.239Z,101083.59
2023-05-08T03:00:48.800Z,101077.38
2023-05-08T03:03:24.110Z,101084.09
2023-05-08T03:05:56.257Z,101081.53
2023-05-08T03:08:29.897Z,101083.84
2023-05-08T03:11:02.644Z,101088.31
2023-05-08T03:13:35.897Z,101084.19
2023-05-08T03:16:11.349Z,101085.09
2023-05-08T03:18:48.664Z,101097.97
2023-05-08T03:21:21.039Z,101102.41
2023-05-08T03:23:52.716Z,101097.03
2023-05-08T03:26:22.482Z,101098.44
2023-05-08T03:28:52.825Z,101102.91
2023-05-08T03:31:27.071Z,101107.47
2023-05-08T03:33:57.584Z,101108.25
2023-05-08T03:36:29.018Z,101106.78
2023-05-08T03:38:58.248Z,101104.97
2023-05-08T03:41:27.743Z,101111.97
2023-05-08T03:43:57.758Z,101109.81
2023-05-08T03:46:27.690Z,101100.41
2023-05-08T03:49:00.456Z,101109.13
2023-05-08T03:51:32.469Z,101104.31
2023-05-08T03:54:01.596Z,101098.19
2023-05-08T03:56:30.583Z,101113.75
2023-05-08T03:59:11.030Z,101111.75
2023-05-08T04:01:41.802Z,101116.53
2023-05-08T04:04:18.877Z,101112.09
2023-05-08T04:06:57.871Z,101109.28
2023-05-08T04:09:39.750Z,101113.16
2023-05-08T04:12:15.067Z,101114.06
2023-05-08T04:14:49.239Z,101112.75
2023-05-08T04:17:29.429Z,101113.53
2023-05-08T04:20:04.069Z,101120.94
2023-05-08T04:22:39.917Z,101123.88
2023-05-08T04:25:11.792Z,101119.81
2023-05-08T04:27:41.967Z,101123.53
2023-05-08T04:30:12.258Z,101114.69
2023-05-08T04:32:44.246Z,101113.75
2023-05-08T04:35:15.646Z,101115.06
2023-05-08T04:37:47.615Z,101118.22
2023-05-08T04:40:17.083Z,101120.63
2023-05-08T04:42:47.902Z,101112.66
2023-05-08T04:45:19.971Z,101106.44
2023-05-08T04:47:49.323Z,101111.59
2023-05-08T04:50:18.404Z,101110.81
2023-05-08T04:52:48.961Z,101114.34
2023-05-08T04:55:18.390Z,101121.38
2023-05-08T04:57:49.248Z,101102.13
2023-05-08T05:00:19.477Z,101121.34
2023-05-08T05:02:49.244Z,101116.16
2023-05-08T05:05:18.472Z,101116.88
2023-05-08T05:07:48.908Z,101127.56
2023-05-08T05:10:18.931Z,101121.66
2023-05-08T05:12:48.773Z,101134.44
2023-05-08T05:15:17.809Z,101137.78
2023-05-08T05:17:47.006Z,101129.22
2023-05-08T05:20:16.257Z,101130.44
2023-05-08T05:22:46.064Z,101137.84
2023-05-08T05:25:16.926Z,101131.81
2023-05-08T05:27:46.641Z,101128.28
2023-05-08T05:30:16.024Z,101144.09
2023-05-08T05:32:45.682Z,101135.59
2023-05-08T05:35:15.084Z,101138.84
2023-05-08T05:37:44.291Z,101134.72
2023-05-08T05:40:14.579Z,101130.94
2023-05-08T05:42:50.305Z,101137.44
2023-05-08T05:45:20.364Z,101142.50
2023-05-08T05:47:50.818Z,101140.59
2023-05-08T05:50:23.932Z,101142.94
2023-05-08T05:52:53.300Z,101130.69
2023-05-08T05:55:22.997Z,101135.53
2023-05-08T05:57:53.741Z,101134.41
2023-05-08T06:00:23.608Z,101135.31
2023-05-08T06:02:57.513Z,101131.16
2023-05-08T06:05:27.091Z,101139.25
2023-05-08T06:07:56.082Z,101126.16
2023-05-08T06:10:26.526Z,101134.84
2023-05-08T06:12:57.266Z,101135.53
2023-05-08T06:15:27.528Z,101139.47
2023-05-08T06:17:57.168Z,101138.13
2023-05-08T06:20:26.720Z,101135.72
2023-05-08T06:22:55.954Z,101137.75
2023-05-08T06:25:25.353Z,101127.56
2023-05-08T06:27:54.439Z,101138.31
2023-05-08T06:30:24.881Z,101145.88
2023-05-08T06:32:53.963Z,101155.41
2023-05-08T06:35:22.970Z,101141.75
2023-05-08T06:37:52.001Z,101135.28
2023-05-08T06:40:21.276Z,101134.91
2023-05-08T06:42:50.390Z,101132.28
2023-05-08T06:45:19.640Z,101141.63
2023-05-08T06:47:50.202Z,101135.41
2023-05-08T06:50:19.323Z,101135.22
2023-05-08T06:52:48.312Z,101132.19
2023-05-08T06:55:17.479Z,101127.25
2023-05-08T06:57:46.483Z,101133.56
2023-05-08T07:00:16.437Z,101116.03
2023-05-08T07:02:45.478Z,101119.84
2023-05-08T07:05:16.544Z,101110.34
2023-05-08T07:07:46.215Z,101108.97
2023-05-08T07:10:15.277Z,101111.56
2023-05-08T07:12:44.542Z,101126.94
2023-05-08T07:15:25.589Z,101112.66
2023-05-08T07:17:55.551Z,101125.78
2023-05-08T07:20:46.304Z,101122.53
2023-05-08T07:23:15.302Z,101130.66
2023-05-08T07:25:44.385Z,101117.44
2023-05-08T07:28:13.384Z,101113.84
2023-05-08T07:30:42.455Z,101103.56
2023-05-08T07:33:11.619Z,101106.25
2023-05-08T07:35:41.481Z,101102.09
2023-05-08T07:38:30.509Z,101101.72
2023-05-08T07:41:01.691Z,101092.69
2023-05-08T07:43:49.181Z,101090.28
2023-05-08T07:46:19.038Z,101102.44
2023-05-08T07:49:07.210Z,101108.03
2023-05-08T07:51:36.247Z,101108.47
2023-05-08T07:54:06.939Z,101105.09
2023-05-08T07:56:36.231Z,101110.59
2023-05-08T07:59:05.420Z,101116.38
2023-05-08T08:01:34.494Z,101101.81
2023-05-08T08:04:03.661Z,101105.75
2023-05-08T08:06:33.038Z,101099.72
2023-05-08T08:09:02.056Z,101099.84
2023-05-08T08:11:32.630Z,101092.56
2023-05-08T08:14:01.653Z,101101.41
2023-05-08T08:16:33.232Z,101094.03
2023-05-08T08:19:02.315Z,101086.69
2023-05-08T08:21:31.672Z,101097.69
2023-05-08T08:24:00.904Z,101088.53
2023-05-08T08:26:30.068Z,101103.22
2023-05-08T08:29:19.196Z,101114.22
2023-05-08T08:31:48.492Z,101096.00
2023-05-08T08:34:17.577Z,101100.69
2023-05-08T08:36:46.835Z,101092.75
2023-05-08T08:39:15.947Z,101102.47
2023-05-08T08:41:45.081Z,101098.66
2023-05-08T08:44:14.164Z,101092.19
2023-05-08T08:47:24.406Z,101095.84
2023-05-08T08:49:54.790Z,101089.91
2023-05-08T08:52:44.735Z,101082.50
2023-05-08T08:55:17.342Z,101079.31
2023-05-08T08:57:54.089Z,101080.28
2023-05-08T09:00:29.743Z,101087.31
2023-05-08T09:03:00.937Z,101086.94
2023-05-08T09:05:49.516Z,101079.09
2023-05-08T09:08:37.271Z,101089.03
2023-05-08T09:11:06.496Z,101091.81
2023-05-08T09:13:36.037Z,101090.69
2023-05-08T09:16:05.561Z,101091.44
2023-05-08T09:18:36.057Z,101103.47
2023-05-08T09:21:07.770Z,101098.28
2023-05-08T09:23:37.585Z,101089.03
2023-05-08T09:26:06.667Z,101101.25
2023-05-08T09:28:35.677Z,101093.88
2023-05-08T09:31:04.862Z,101095.34
2023-05-08T09:33:45.126Z,101075.31
2023-05-08T09:36:28.195Z,101081.94
2023-05-08T09:38:57.246Z,101067.50
2023-05-08T09:41:26.885Z,101066.44
2023-05-08T09:44:03.690Z,101068.56
2023-05-08T09:46:34.163Z,101081.59
2023-05-08T09:49:05.337Z,101064.19
2023-05-08T09:51:34.380Z,101072.06
2023-05-08T09:54:06.013Z,101066.44
2023-05-08T09:56:37.232Z,101066.91
2023-05-08T09:59:07.694Z,101064.78
2023-05-08T10:01:39.842Z,101067.25
2023-05-08T10:04:10.707Z,101064.28
2023-05-08T10:06:39.960Z,101058.91
2023-05-08T10:09:13.152Z,101060.38
2023-05-08T10:11:43.587Z,101058.97
2023-05-08T10:14:12.529Z,101063.59
2023-05-08T10:16:45.237Z,101062.31
2023-05-08T10:19:17.393Z,101064.44
2023-05-08T10:21:49.555Z,101077.28
2023-05-08T10:24:20.175Z,101056.09
2023-05-08T10:27:06.834Z,101057.19
2023-05-08T10:29:44.003Z,101068.59
2023-05-08T10:32:14.667Z,101045.50
2023-05-08T10:34:47.618Z,101041.47
2023-05-08T10:37:17.528Z,101042.69
2023-05-08T10:39:48.008Z,101042.38
2023-05-08T10:42:17.249Z,101050.91
2023-05-08T10:44:48.648Z,101048.34
2023-05-08T10:47:24.588Z,101039.34
2023-05-08T10:50:02.340Z,101047.19
2023-05-08T10:52:40.598Z,101037.44
2023-05-08T10:55:20.762Z,101052.31
2023-05-08T10:58:11.938Z,101038.13
2023-05-08T11:01:18.131Z,101048.19
2023-05-08T11:03:50.936Z,101045.50
2023-05-08T11:06:45.933Z,101043.34
2023-05-08T11:09:23.259Z,101035.69
2023-05-08T11:12:08.464Z,101036.69
2023-05-08T11:14:43.458Z,101034.16
2023-05-08T11:17:12.670Z,101029.25
2023-05-08T11:19:58.006Z,101030.31
2023-05-08T11:22:30.448Z,101021.84
2023-05-08T11:25:01.843Z,101034.09
2023-05-08T11:27:42.744Z,101030.19
2023-05-08T11:30:26.050Z,101022.41
2023-05-08T11:33:19.058Z,101029.84
2023-05-08T11:35:50.724Z,101024.31
2023-05-08T11:38:23.662Z,101024.50
2023-05-08T11:41:04.304Z,101025.41
2023-05-08T11:43:58.380Z,101044.56
2023-05-08T11:46:51.341Z,101025.56
2023-05-08T11:49:25.461Z,101030.38
2023-05-08T11:51:59.860Z,101022.19
2023-05-08T11:54:33.142Z,101030.22
2023-05-08T11:57:02.562Z,101023.56
2023-05-08T11:59:37.027Z,101018.72
2023-05-08T12:02:09.595Z,101026.72
2023-05-08T12:04:46.800Z,101020.50
2023-05-08T12:07:16.660Z,101029.44
2023-05-08T12:09:47.716Z,101021.72
2023-05-08T12:12:16.972Z,101028.06
2023-05-08T12:14:45.952Z,101025.19
2023-05-08T12:17:19.159Z,101025.19
2023-05-08T12:19:48.282Z,101024.03
2023-05-08T12:22:17.556Z,101014.06
2023-05-08T12:24:47.928Z,101003.81
2023-05-08T12:27:17.064Z,101010.56
2023-05-08T12:29:46.760Z,101012.34
2023-05-08T12:32:15.961Z,101020.56
2023-05-08T12:34:45.124Z,101015.84
2023-05-08T12:37:25.424Z,101007.28
2023-05-08T12:39:56.043Z,101012.59
2023-05-08T12:42:42.931Z,101005.84
2023-05-08T12:45:18.771Z,101005.22
2023-05-08T12:47:49.197Z,100999.47
2023-05-08T12:50:21.208Z,100999.00
2023-05-08T12:52:52.081Z,101006.88
2023-05-08T12:55:25.305Z,100999.41
2023-05-08T12:58:01.689Z,100995.00
2023-05-08T13:00:41.496Z,100999.53
2023-05-08T13:03:13.059Z,100996.34
2023-05-08T13:05:43.819Z,100989.47
2023-05-08T13:08:12.903Z,100991.19
2023-05-08T13:10:47.302Z,100992.75
2023-05-08T13:13:17.569Z,100984.25
2023-05-08T13:15:47.698Z,100989.13
2023-05-08T13:18:17.415Z,100988.22
2023-05-08T13:20:46.534Z,100988.19
2023-05-08T13:23:15.591Z,100979.72
2023-05-08T13:25:44.599Z,100984.72
2023-05-08T13:28:15.046Z,100985.22
2023-05-08T13:30:44.089Z,100988.78
2023-05-08T13:33:13.067Z,100987.34
2023-05-08T13:35:42.228Z,100981.53
2023-05-08T13:38:11.211Z,100985.19
2023-05-08T13:40:40.448Z,100989.84
2023-05-08T13:43:09.438Z,100997.09
2023-05-08T13:45:40.055Z,100990.00
2023-05-08T13:48:09.140Z,100988.84
2023-05-08T13:50:38.328Z,100986.06
2023-05-08T13:53:07.382Z,100995.50
2023-05-08T13:55:37.863Z,100990.69
2023-05-08T13:58:08.229Z,100985.59
2023-05-08T14:00:37.569Z,100982.59
2023-05-08T14:03:09.547Z,100988.06
2023-05-08T14:05:38.600Z,100993.75
2023-05-08T14:08:07.720Z,100993.50
2023-05-08T14:10:36.884Z,100988.53
2023-05-08T14:13:06.081Z,100986.88
2023-05-08T14:15:37.288Z,100985.81
2023-05-08T14:18:08.693Z,100992.72
2023-05-08T14:20:37.806Z,100977.56
2023-05-08T14:23:08.639Z,100977.28
2023-05-08T14:25:38.079Z,100982.19
2023-05-08T14:28:07.122Z,100979.13
2023-05-08T14:30:36.270Z,100980.66
2023-05-08T14:33:05.871Z,100975.41
2023-05-08T14:35:36.506Z,100985.25
2023-05-08T14:38:05.720Z,100976.78
2023-05-08T14:40:35.101Z,100977.53
2023-05-08T14:43:04.121Z,100978.13
2023-05-08T14:45:33.594Z,100977.69
2023-05-08T14:48:02.772Z,100975.41
2023-05-08T14:50:32.016Z,100975.69
2023-05-08T14:53:02.803Z,100976.78
2023-05-08T14:55:33.190Z,100972.59
2023-05-08T14:58:02.538Z,100974.06
2023-05-08T15:00:31.683Z,100974.97
2023-05-08T15:03:00.843Z,100968.56
2023-05-08T15:05:30.432Z,100968.16
2023-05-08T15:07:59.759Z,100969.22
2023-05-08T15:10:30.554Z,100966.75
2023-05-08T15:12:59.952Z,100962.34
2023-05-08T15:15:29.253Z,100955.53
2023-05-08T15:17:58.306Z,100963.97
2023-05-08T15:20:27.392Z,100960.19
2023-05-08T15:22:56.476Z,100956.69
2023-05-08T15:25:25.912Z,100968.63
2023-05-08T15:27:58.218Z,100960.31
2023-05-08T15:30:27.555Z,100965.34
2023-05-08T15:32:56.616Z,100968.59
2023-05-08T15:35:25.752Z,100967.66
2023-05-08T15:37:54.802Z,100963.38
2023-05-08T15:40:23.878Z,100976.25
2023-05-08T15:42:52.901Z,100967.38
2023-05-08T15:45:23.605Z,100978.25
2023-05-08T15:47:52.735Z,100977.16
2023-05-08T15:50:22.454Z,100977.59
2023-05-08T15:52:51.801Z,100973.91
2023-05-08T15:55:21.452Z,100978.66
2023-05-08T15:57:51.733Z,100968.53
2023-05-08T16:00:25.091Z,100972.69
2023-05-08T16:02:56.695Z,100970.69
2023-05-08T16:05:25.913Z,100968.53
2023-05-08T16:07:55.763Z,100967.91
2023-05-08T16:10:25.256Z,100960.13
2023-05-08T16:12:54.380Z,100965.13
2023-05-08T16:15:24.869Z,100962.50
2023-05-08T16:17:54.068Z,100967.13
2023-05-08T16:20:23.567Z,100972.66
2023-05-08T16:22:55.164Z,100961.28
2023-05-08T16:25:25.037Z,100971.44
2023-05-08T16:27:54.036Z,100964.03
2023-05-08T16:30:24.517Z,100969.53
2023-05-08T16:32:53.643Z,100961.84
2023-05-08T16:35:23.195Z,100962.59
2023-05-08T16:37:52.289Z,100963.97
2023-05-08T16:40:21.492Z,100963.91
2023-05-08T16:42:51.132Z,100974.28
2023-05-08T16:45:20.283Z,100968.34
2023-05-08T16:47:50.979Z,100968.28
2023-05-08T16:50:20.143Z,100971.53
2023-05-08T16:52:49.117Z,100977.75
2023-05-08T16:55:18.305Z,100972.41
2023-05-08T16:57:47.383Z,100981.47
2023-05-08T17:00:17.290Z,100976.34
2023-05-08T17:02:46.404Z,100977.94
2023-05-08T17:05:16.918Z,100983.63
2023-05-08T17:07:45.991Z,100982.53
2023-05-08T17:10:15.401Z,100988.13
2023-05-08T17:12:44.569Z,100995.88
2023-05-08T17:15:13.994Z,100996.88
2023-05-08T17:17:43.694Z,100996.56
2023-05-08T17:20:14.275Z,101005.44
2023-05-08T17:22:45.093Z,101003.09
2023-05-08T17:25:16.363Z,100997.78
2023-05-08T17:27:45.452Z,101000.09
2023-05-08T17:30:17.097Z,101001.25
2023-05-08T17:32:51.810Z,101003.75
2023-05-08T17:35:21.584Z,101008.63
2023-05-08T17:37:52.094Z,101010.31
2023-05-08T17:40:21.239Z,101017.19
2023-05-08T17:42:50.502Z,101013.16
2023-05-08T17:45:19.569Z,101015.59
2023-05-08T17:47:48.688Z,101019.16
2023-05-08T17:50:18.142Z,101025.34
2023-05-08T17:52:47.252Z,101020.50
2023-05-08T17:55:17.792Z,101024.22
2023-05-08T17:57:50.951Z,101035.13
2023-05-08T18:00:20.552Z,101032.00
2023-05-08T18:02:49.794Z,101034.53
2023-05-08T18:05:19.536Z,101042.44
2023-05-08T18:07:48.472Z,101035.91
2023-05-08T18:10:18.927Z,101043.47
2023-05-08T18:12:48.876Z,101037.34
2023-05-08T18:15:17.964Z,101046.59
2023-05-08T18:17:47.148Z,101043.66
2023-05-08T18:20:16.339Z,101041.44
2023-05-08T18:22:46.040Z,101042.75
2023-05-08T18:25:15.495Z,101044.44
2023-05-08T18:27:48.746Z,101050.50
2023-05-08T18:30:19.392Z,101045.09
2023-05-08T18:32:48.556Z,101045.31
2023-05-08T18:35:18.077Z,101049.75
2023-05-08T18:37:47.304Z,101046.78
2023-05-08T18:40:16.644Z,101053.22
2023-05-08T18:42:47.157Z,101050.38
2023-05-08T18:45:16.769Z,101050.19
2023-05-08T18:47:45.797Z,101047.41
2023-05-08T18:50:15.250Z,101049.06
2023-05-08T18:52:44.743Z,101049.63
2023-05-08T18:55:13.768Z,101048.44
2023-05-08T18:57:42.799Z,101051.09
2023-05-08T19:00:16.260Z,101057.16
2023-05-08T19:02:48.436Z,101052.56
2023-05-08T19:05:18.020Z,101056.06
2023-05-08T19:07:47.083Z,101059.97
2023-05-08T19:10:16.463Z,101063.66
2023-05-08T19:12:45.745Z,101061.06
2023-05-08T19:15:16.435Z,101057.75
2023-05-08T19:17:45.522Z,101061.03
2023-05-08T19:20:15.794Z,101059.00
2023-05-08T19:22:46.914Z,101062.66
2023-05-08T19:25:16.579Z,101057.28
2023-05-08T19:27:45.985Z,101064.66
2023-05-08T19:30:16.915Z,101058.34
2023-05-08T19:32:46.610Z,101068.06
2023-05-08T19:35:15.778Z,101058.34
2023-05-08T19:37:45.209Z,101066.78
2023-05-08T19:40:16.369Z,101073.84
2023-05-08T19:42:45.965Z,101073.28
2023-05-08T19:45:17.051Z,101067.34
2023-05-08T19:47:49.290Z,101064.72
2023-05-08T19:50:19.017Z,101067.81
2023-05-08T19:52:48.884Z,101072.94
2023-05-08T19:55:18.458Z,101069.94
2023-05-08T19:57:47.505Z,101070.63
2023-05-08T20:00:18.292Z,101072.50
2023-05-08T20:02:47.397Z,101067.19
2023-05-08T20:05:22.385Z,101069.38
2023-05-08T20:07:52.681Z,101075.09
2023-05-08T20:10:21.985Z,101070.84
2023-05-08T20:12:51.178Z,101076.78
2023-05-08T20:15:21.641Z,101072.19
2023-05-08T20:17:50.947Z,101069.94
2023-05-08T20:20:20.222Z,101071.78
2023-05-08T20:22:49.338Z,101069.94
2023-05-08T20:25:18.305Z,101070.28
2023-05-08T20:27:48.787Z,101069.13
2023-05-08T20:30:18.000Z,101073.19
2023-05-08T20:32:48.469Z,101072.06
2023-05-08T20:35:17.605Z,101072.31
2023-05-08T20:37:47.684Z,101071.94
2023-05-08T20:40:17.059Z,101074.84
2023-05-08T20:42:46.242Z,101075.25
2023-05-08T20:45:15.391Z,101075.44
2023-05-08T20:47:44.551Z,101074.56
2023-05-08T20:50:16.532Z,101075.38
2023-05-08T20:52:45.728Z,101078.16
2023-05-08T20:55:14.930Z,101076.34
2023-05-08T20:57:44.161Z,101082.06
2023-05-08T21:00:14.186Z,101084.41
2023-05-08T21:02:43.741Z,101091.72
2023-05-08T21:05:14.660Z,101081.56
2023-05-08T21:07:43.888Z,101090.00
2023-05-08T21:10:13.982Z,101087.97
2023-05-08T21:12:45.624Z,101085.09
2023-05-08T21:15:14.874Z,101084.72
2023-05-08T21:17:44.158Z,101086.31
2023-05-08T21:20:15.311Z,101086.00
2023-05-08T21:22:46.402Z,101088.00
2023-05-08T21:25:18.898Z,101090.53
2023-05-08T21:27:49.292Z,101090.63
2023-05-08T21:30:18.477Z,101083.94
2023-05-08T21:32:47.716Z,101090.56
2023-05-08T21:35:18.262Z,101086.38
2023-05-08T21:37:47.307Z,101090.38
2023-05-08T21:40:16.265Z,101089.50
2023-05-08T21:42:45.187Z,101091.78
2023-05-08T21:45:14.412Z,101084.75
2023-05-08T21:47:44.017Z,101084.84
2023-05-08T21:50:13.235Z,101082.81
2023-05-08T21:52:43.697Z,101087.81
2023-05-08T21:55:12.996Z,101092.41
2023-05-08T21:57:42.251Z,101090.47
2023-05-08T22:00:12.311Z,101085.75
2023-05-08T22:02:49.650Z,101089.53
2023-05-08T22:05:18.822Z,101087.69
2023-05-08T22:07:49.193Z,101092.91
2023-05-08T22:10:18.358Z,101092.50
2023-05-08T22:12:48.011Z,101090.00
2023-05-08T22:15:29.079Z,101096.84
2023-05-08T22:17:59.678Z,101092.59
2023-05-08T22:20:28.794Z,101094.06
2023-05-08T22:22:59.273Z,101091.59
2023-05-08T22:25:28.589Z,101096.81
2023-05-08T22:27:57.670Z,101096.91
2023-05-08T22:30:26.803Z,101098.25
2023-05-08T22:32:57.508Z,101101.06
2023-05-08T22:35:28.466Z,101104.16
2023-05-08T22:37:58.982Z,101096.31
2023-05-08T22:40:29.842Z,101100.16
2023-05-08T22:43:00.273Z,101100.38
2023-05-08T22:45:29.485Z,101099.84
2023-05-08T22:47:59.005Z,101099.13
2023-05-08T22:50:28.063Z,101099.66
2023-05-08T22:52:58.728Z,101098.81
2023-05-08T22:55:27.703Z,101107.69
2023-05-08T22:57:56.781Z,101101.50
2023-05-08T23:00:25.732Z,101101.81
2023-05-08T23:02:54.780Z,101099.13
2023-05-08T23:05:24.065Z,101099.94
2023-05-08T23:07:52.987Z,101099.72
2023-05-08T23:10:23.588Z,101100.63
2023-05-08T23:12:52.634Z,101099.88
2023-05-08T23:15:22.263Z,101100.09
2023-05-08T23:17:51.621Z,101104.47
2023-05-08T23:20:20.733Z,101101.22
2023-05-08T23:22:49.686Z,101099.19
2023-05-08T23:25:18.718Z,101106.22
2023-05-08T23:27:49.006Z,101107.56
2023-05-08T23:30:18.044Z,101105.94
2023-05-08T23:32:47.488Z,101108.19
2023-05-08T23:35:16.711Z,101101.81
2023-05-08T23:37:45.817Z,101110.22
2023-05-08T23:40:14.871Z,101103.22
2023-05-08T23:42:43.806Z,101100.47
2023-05-08T23:45:14.352Z,101104.47
2023-05-08T23:47:43.442Z,101100.53
2023-05-08T23:50:13.525Z,101100.53
2023-05-08T23:52:42.953Z,101111.00
2023-05-08T23:55:12.642Z,101105.94
2023-05-08T23:57:41.889Z,101113.00
